sensor_id;sensor_type;location;lat;lon;timestamp;P1;durP1;ratioP1;P2;durP2;ratioP2
1400;SDS011;46518;48.842;8.926;2022-12-22T00:00:45;1.67;;;1.58;;
1400;SDS011;46518;48.842;8.926;2022-12-22T00:03:32;3.55;;;1.60;;
1400;SDS011;46518;48.842;8.926;2022-12-22T00:06:17;1.70;;;1.50;;
1400;SDS011;46518;48.842;8.926;2022-12-22T00:09:03;2.25;;;2.10;;
1400;SDS011;46518;48.842;8.926;2022-12-22T00:11:51;3.42;;;1.40;;
1400;SDS011;46518;48.842;8.926;2022-12-22T00:14:36;1.70;;;1.60;;
1400;SDS011;46518;48.842;8.926;2022-12-22T00:17:23;1.63;;;1.40;;
1400;SDS011;46518;48.842;8.926;2022-12-22T00:20:11;1.27;;;1.10;;
1400;SDS011;46518;48.842;8.926;2022-12-22T00:22:58;1.83;;;1.48;;
1400;SDS011;46518;48.842;8.926;2022-12-22T00:25:43;1.13;;;0.93;;
1400;SDS011;46518;48.842;8.926;2022-12-22T00:28:31;1.38;;;1.10;;
1400;SDS011;46518;48.842;8.926;2022-12-22T00:31:17;1.48;;;1.30;;
1400;SDS011;46518;48.842;8.926;2022-12-22T00:34:07;1.10;;;1.00;;
1400;SDS011;46518;48.842;8.926;2022-12-22T00:36:58;1.17;;;1.08;;
1400;SDS011;46518;48.842;8.926;2022-12-22T00:39:44;1.95;;;1.73;;
1400;SDS011;46518;48.842;8.926;2022-12-22T00:42:30;2.28;;;1.30;;
1400;SDS011;46518;48.842;8.926;2022-12-22T00:45:17;1.60;;;1.50;;
1400;SDS011;46518;48.842;8.926;2022-12-22T00:48:03;3.35;;;1.50;;
1400;SDS011;46518;48.842;8.926;2022-12-22T00:50:50;2.05;;;1.60;;
1400;SDS011;46518;48.842;8.926;2022-12-22T00:53:36;1.50;;;1.27;;
1400;SDS011;46518;48.842;8.926;2022-12-22T00:56:21;1.42;;;1.33;;
1400;SDS011;46518;48.842;8.926;2022-12-22T00:59:07;1.20;;;1.10;;
1400;SDS011;46518;48.842;8.926;2022-12-22T01:01:56;2.35;;;1.50;;
1400;SDS011;46518;48.842;8.926;2022-12-22T01:04:42;1.80;;;1.70;;
1400;SDS011;46518;48.842;8.926;2022-12-22T01:07:27;1.15;;;1.05;;
1400;SDS011;46518;48.842;8.926;2022-12-22T01:10:14;1.73;;;1.48;;
1400;SDS011;46518;48.842;8.926;2022-12-22T01:13:00;1.88;;;1.20;;
1400;SDS011;46518;48.842;8.926;2022-12-22T01:15:46;2.05;;;1.42;;
1400;SDS011;46518;48.842;8.926;2022-12-22T01:18:34;1.88;;;1.15;;
1400;SDS011;46518;48.842;8.926;2022-12-22T01:21:20;3.42;;;1.50;;
1400;SDS011;46518;48.842;8.926;2022-12-22T01:24:08;2.28;;;1.25;;
1400;SDS011;46518;48.842;8.926;2022-12-22T01:26:56;1.20;;;1.10;;
1400;SDS011;46518;48.842;8.926;2022-12-22T01:29:42;1.88;;;1.33;;
1400;SDS011;46518;48.842;8.926;2022-12-22T01:32:27;1.98;;;1.30;;
1400;SDS011;46518;48.842;8.926;2022-12-22T01:35:19;1.38;;;1.25;;
1400;SDS011;46518;48.842;8.926;2022-12-22T01:38:07;3.00;;;1.40;;
1400;SDS011;46518;48.842;8.926;2022-12-22T01:40:53;2.08;;;1.77;;
1400;SDS011;46518;48.842;8.926;2022-12-22T01:43:40;2.95;;;1.25;;
1400;SDS011;46518;48.842;8.926;2022-12-22T01:46:27;1.45;;;1.35;;
1400;SDS011;46518;48.842;8.926;2022-12-22T01:49:16;1.90;;;1.50;;
1400;SDS011;46518;48.842;8.926;2022-12-22T01:52:42;1.38;;;1.27;;
1400;SDS011;46518;48.842;8.926;2022-12-22T01:55:27;1.55;;;1.08;;
1400;SDS011;46518;48.842;8.926;2022-12-22T01:58:15;1.48;;;1.00;;
1400;SDS011;46518;48.842;8.926;2022-12-22T02:01:08;1.20;;;1.10;;
1400;SDS011;46518;48.842;8.926;2022-12-22T02:03:55;2.15;;;1.25;;
1400;SDS011;46518;48.842;8.926;2022-12-22T02:06:41;0.90;;;0.90;;
1400;SDS011;46518;48.842;8.926;2022-12-22T02:09:51;1.70;;;1.35;;
1400;SDS011;46518;48.842;8.926;2022-12-22T02:12:44;1.20;;;1.10;;
1400;SDS011;46518;48.842;8.926;2022-12-22T02:15:44;1.45;;;1.00;;
1400;SDS011;46518;48.842;8.926;2022-12-22T02:18:36;0.80;;;0.80;;
1400;SDS011;46518;48.842;8.926;2022-12-22T02:21:27;1.30;;;1.08;;
1400;SDS011;46518;48.842;8.926;2022-12-22T02:24:22;0.98;;;0.88;;
1400;SDS011;46518;48.842;8.926;2022-12-22T02:27:17;1.15;;;0.70;;
1400;SDS011;46518;48.842;8.926;2022-12-22T02:30:04;1.10;;;0.88;;
1400;SDS011;46518;48.842;8.926;2022-12-22T02:32:52;1.20;;;0.90;;
1400;SDS011;46518;48.842;8.926;2022-12-22T02:35:40;0.80;;;0.70;;
1400;SDS011;46518;48.842;8.926;2022-12-22T02:38:36;2.47;;;1.20;;
1400;SDS011;46518;48.842;8.926;2022-12-22T02:41:29;3.42;;;0.88;;
1400;SDS011;46518;48.842;8.926;2022-12-22T02:44:27;1.42;;;0.90;;
1400;SDS011;46518;48.842;8.926;2022-12-22T02:47:22;2.65;;;0.90;;
1400;SDS011;46518;48.842;8.926;2022-12-22T02:50:19;1.05;;;0.90;;
1400;SDS011;46518;48.842;8.926;2022-12-22T02:53:10;1.45;;;0.80;;
1400;SDS011;46518;48.842;8.926;2022-12-22T02:55:58;2.78;;;1.00;;
1400;SDS011;46518;48.842;8.926;2022-12-22T02:58:47;1.00;;;0.90;;
1400;SDS011;46518;48.842;8.926;2022-12-22T03:01:34;1.00;;;0.90;;
1400;SDS011;46518;48.842;8.926;2022-12-22T03:04:34;1.00;;;0.70;;
1400;SDS011;46518;48.842;8.926;2022-12-22T03:07:20;1.88;;;1.10;;
1400;SDS011;46518;48.842;8.926;2022-12-22T03:10:09;1.45;;;0.98;;
1400;SDS011;46518;48.842;8.926;2022-12-22T03:12:57;1.05;;;0.95;;
1400;SDS011;46518;48.842;8.926;2022-12-22T03:15:43;2.78;;;0.90;;
1400;SDS011;46518;48.842;8.926;2022-12-22T03:18:31;1.65;;;0.93;;
1400;SDS011;46518;48.842;8.926;2022-12-22T03:21:16;1.45;;;1.30;;
1400;SDS011;46518;48.842;8.926;2022-12-22T03:24:02;1.48;;;0.95;;
1400;SDS011;46518;48.842;8.926;2022-12-22T03:26:48;1.20;;;1.10;;
1400;SDS011;46518;48.842;8.926;2022-12-22T03:29:16;2.15;;;1.23;;
1400;SDS011;46518;48.842;8.926;2022-12-22T03:31:44;3.05;;;1.42;;
1400;SDS011;46518;48.842;8.926;2022-12-22T03:34:14;1.42;;;1.33;;
1400;SDS011;46518;48.842;8.926;2022-12-22T03:36:42;3.40;;;3.10;;
1400;SDS011;46518;48.842;8.926;2022-12-22T03:39:10;2.00;;;1.30;;
1400;SDS011;46518;48.842;8.926;2022-12-22T03:41:38;1.33;;;1.23;;
1400;SDS011;46518;48.842;8.926;2022-12-22T03:44:24;1.40;;;1.30;;
1400;SDS011;46518;48.842;8.926;2022-12-22T03:47:10;1.60;;;1.50;;
1400;SDS011;46518;48.842;8.926;2022-12-22T03:49:40;1.63;;;0.98;;
1400;SDS011;46518;48.842;8.926;2022-12-22T03:52:08;3.95;;;1.33;;
1400;SDS011;46518;48.842;8.926;2022-12-22T03:54:36;1.25;;;1.15;;
1400;SDS011;46518;48.842;8.926;2022-12-22T03:57:04;2.03;;;0.85;;
1400;SDS011;46518;48.842;8.926;2022-12-22T03:59:32;7.13;;;2.65;;
1400;SDS011;46518;48.842;8.926;2022-12-22T04:02:00;1.35;;;1.17;;
1400;SDS011;46518;48.842;8.926;2022-12-22T04:04:29;1.77;;;0.95;;
1400;SDS011;46518;48.842;8.926;2022-12-22T04:07:03;0.95;;;0.90;;
1400;SDS011;46518;48.842;8.926;2022-12-22T04:09:31;1.40;;;0.90;;
1400;SDS011;46518;48.842;8.926;2022-12-22T04:11:59;1.42;;;1.00;;
1400;SDS011;46518;48.842;8.926;2022-12-22T04:14:45;0.98;;;0.90;;
1400;SDS011;46518;48.842;8.926;2022-12-22T04:17:13;1.48;;;0.85;;
1400;SDS011;46518;48.842;8.926;2022-12-22T04:19:41;2.65;;;1.70;;
1400;SDS011;46518;48.842;8.926;2022-12-22T04:22:14;2.15;;;0.85;;
1400;SDS011;46518;48.842;8.926;2022-12-22T04:24:42;3.08;;;1.00;;
1400;SDS011;46518;48.842;8.926;2022-12-22T04:27:10;2.08;;;1.33;;
1400;SDS011;46518;48.842;8.926;2022-12-22T04:29:50;1.90;;;0.93;;
1400;SDS011;46518;48.842;8.926;2022-12-22T04:32:18;1.90;;;1.08;;
1400;SDS011;46518;48.842;8.926;2022-12-22T04:35:05;1.95;;;1.05;;
1400;SDS011;46518;48.842;8.926;2022-12-22T04:37:36;4.00;;;0.90;;
1400;SDS011;46518;48.842;8.926;2022-12-22T04:40:05;2.00;;;1.10;;
1400;SDS011;46518;48.842;8.926;2022-12-22T04:42:52;2.05;;;0.80;;
1400;SDS011;46518;48.842;8.926;2022-12-22T04:45:20;1.55;;;1.00;;
1400;SDS011;46518;48.842;8.926;2022-12-22T04:47:49;2.90;;;1.10;;
1400;SDS011;46518;48.842;8.926;2022-12-22T04:50:17;2.85;;;1.40;;
1400;SDS011;46518;48.842;8.926;2022-12-22T04:52:47;1.55;;;0.77;;
1400;SDS011;46518;48.842;8.926;2022-12-22T04:55:16;1.65;;;1.10;;
1400;SDS011;46518;48.842;8.926;2022-12-22T04:57:44;3.78;;;1.23;;
1400;SDS011;46518;48.842;8.926;2022-12-22T05:00:12;4.10;;;1.80;;
1400;SDS011;46518;48.842;8.926;2022-12-22T05:02:41;1.95;;;1.58;;
1400;SDS011;46518;48.842;8.926;2022-12-22T05:05:10;3.83;;;1.33;;
1400;SDS011;46518;48.842;8.926;2022-12-22T05:07:38;2.25;;;1.20;;
1400;SDS011;46518;48.842;8.926;2022-12-22T05:10:08;2.33;;;1.45;;
1400;SDS011;46518;48.842;8.926;2022-12-22T05:12:37;1.63;;;1.30;;
1400;SDS011;46518;48.842;8.926;2022-12-22T05:15:26;2.30;;;1.20;;
1400;SDS011;46518;48.842;8.926;2022-12-22T05:17:56;2.10;;;1.50;;
1400;SDS011;46518;48.842;8.926;2022-12-22T05:20:25;1.73;;;1.20;;
1400;SDS011;46518;48.842;8.926;2022-12-22T05:22:54;1.75;;;1.40;;
1400;SDS011;46518;48.842;8.926;2022-12-22T05:25:24;2.15;;;1.35;;
1400;SDS011;46518;48.842;8.926;2022-12-22T05:28:00;1.25;;;1.13;;
1400;SDS011;46518;48.842;8.926;2022-12-22T05:30:28;1.50;;;1.20;;
1400;SDS011;46518;48.842;8.926;2022-12-22T05:32:56;1.30;;;1.10;;
1400;SDS011;46518;48.842;8.926;2022-12-22T05:35:24;1.10;;;0.95;;
1400;SDS011;46518;48.842;8.926;2022-12-22T05:37:53;2.00;;;1.10;;
1400;SDS011;46518;48.842;8.926;2022-12-22T05:40:20;2.50;;;1.25;;
1400;SDS011;46518;48.842;8.926;2022-12-22T05:42:50;3.03;;;1.00;;
1400;SDS011;46518;48.842;8.926;2022-12-22T05:45:19;1.73;;;1.10;;
1400;SDS011;46518;48.842;8.926;2022-12-22T05:47:49;1.40;;;1.10;;
1400;SDS011;46518;48.842;8.926;2022-12-22T05:50:19;3.08;;;0.90;;
1400;SDS011;46518;48.842;8.926;2022-12-22T05:52:57;2.08;;;0.95;;
1400;SDS011;46518;48.842;8.926;2022-12-22T05:55:25;1.15;;;0.90;;
1400;SDS011;46518;48.842;8.926;2022-12-22T05:57:55;2.20;;;0.90;;
1400;SDS011;46518;48.842;8.926;2022-12-22T06:00:23;2.05;;;1.00;;
1400;SDS011;46518;48.842;8.926;2022-12-22T06:02:51;1.42;;;1.15;;
1400;SDS011;46518;48.842;8.926;2022-12-22T06:05:19;1.10;;;0.63;;
1400;SDS011;46518;48.842;8.926;2022-12-22T06:07:47;1.35;;;0.70;;
1400;SDS011;46518;48.842;8.926;2022-12-22T06:10:15;1.33;;;0.70;;
1400;SDS011;46518;48.842;8.926;2022-12-22T06:12:44;1.00;;;0.90;;
1400;SDS011;46518;48.842;8.926;2022-12-22T06:15:14;1.77;;;1.20;;
1400;SDS011;46518;48.842;8.926;2022-12-22T06:17:42;1.58;;;0.63;;
1400;SDS011;46518;48.842;8.926;2022-12-22T06:20:12;1.23;;;0.90;;
1400;SDS011;46518;48.842;8.926;2022-12-22T06:22:43;1.67;;;0.90;;
1400;SDS011;46518;48.842;8.926;2022-12-22T06:25:11;2.40;;;1.08;;
1400;SDS011;46518;48.842;8.926;2022-12-22T06:27:44;2.50;;;1.13;;
1400;SDS011;46518;48.842;8.926;2022-12-22T06:30:15;1.50;;;1.00;;
1400;SDS011;46518;48.842;8.926;2022-12-22T06:32:44;2.00;;;1.05;;
1400;SDS011;46518;48.842;8.926;2022-12-22T06:35:12;1.85;;;0.90;;
1400;SDS011;46518;48.842;8.926;2022-12-22T06:37:40;3.88;;;1.48;;
1400;SDS011;46518;48.842;8.926;2022-12-22T06:40:10;3.33;;;1.45;;
1400;SDS011;46518;48.842;8.926;2022-12-22T06:42:42;3.67;;;1.08;;
1400;SDS011;46518;48.842;8.926;2022-12-22T06:45:39;4.97;;;1.60;;
1400;SDS011;46518;48.842;8.926;2022-12-22T06:48:08;5.55;;;1.67;;
1400;SDS011;46518;48.842;8.926;2022-12-22T06:50:37;3.20;;;1.20;;
1400;SDS011;46518;48.842;8.926;2022-12-22T06:53:06;4.53;;;1.80;;
1400;SDS011;46518;48.842;8.926;2022-12-22T06:55:35;8.55;;;1.40;;
1400;SDS011;46518;48.842;8.926;2022-12-22T06:58:05;1.70;;;1.50;;
1400;SDS011;46518;48.842;8.926;2022-12-22T07:00:33;5.22;;;1.77;;
1400;SDS011;46518;48.842;8.926;2022-12-22T07:03:03;2.58;;;1.70;;
1400;SDS011;46518;48.842;8.926;2022-12-22T07:05:32;2.50;;;2.13;;
1400;SDS011;46518;48.842;8.926;2022-12-22T07:08:00;4.95;;;1.48;;
1400;SDS011;46518;48.842;8.926;2022-12-22T07:10:35;3.28;;;1.83;;
1400;SDS011;46518;48.842;8.926;2022-12-22T07:13:21;6.00;;;1.95;;
1400;SDS011;46518;48.842;8.926;2022-12-22T07:15:51;3.42;;;1.40;;
1400;SDS011;46518;48.842;8.926;2022-12-22T07:18:27;3.17;;;1.30;;
1400;SDS011;46518;48.842;8.926;2022-12-22T07:20:58;4.43;;;1.30;;
1400;SDS011;46518;48.842;8.926;2022-12-22T07:23:27;5.25;;;1.63;;
1400;SDS011;46518;48.842;8.926;2022-12-22T07:25:57;5.55;;;1.67;;
1400;SDS011;46518;48.842;8.926;2022-12-22T07:28:26;4.95;;;1.60;;
1400;SDS011;46518;48.842;8.926;2022-12-22T07:30:56;4.32;;;1.63;;
1400;SDS011;46518;48.842;8.926;2022-12-22T07:33:25;6.95;;;2.00;;
1400;SDS011;46518;48.842;8.926;2022-12-22T07:35:59;6.55;;;1.60;;
1400;SDS011;46518;48.842;8.926;2022-12-22T07:38:30;3.22;;;1.55;;
1400;SDS011;46518;48.842;8.926;2022-12-22T07:41:03;3.30;;;1.83;;
1400;SDS011;46518;48.842;8.926;2022-12-22T07:43:54;3.63;;;2.00;;
1400;SDS011;46518;48.842;8.926;2022-12-22T07:46:24;3.80;;;1.45;;
1400;SDS011;46518;48.842;8.926;2022-12-22T07:48:54;4.78;;;1.52;;
1400;SDS011;46518;48.842;8.926;2022-12-22T07:51:51;5.40;;;4.43;;
1400;SDS011;46518;48.842;8.926;2022-12-22T07:54:22;4.50;;;1.50;;
1400;SDS011;46518;48.842;8.926;2022-12-22T07:56:51;2.60;;;1.60;;
1400;SDS011;46518;48.842;8.926;2022-12-22T07:59:20;4.95;;;1.65;;
1400;SDS011;46518;48.842;8.926;2022-12-22T08:01:49;4.00;;;1.40;;
1400;SDS011;46518;48.842;8.926;2022-12-22T08:04:17;5.45;;;1.65;;
1400;SDS011;46518;48.842;8.926;2022-12-22T08:06:47;3.63;;;1.55;;
1400;SDS011;46518;48.842;8.926;2022-12-22T08:09:16;2.60;;;1.40;;
1400;SDS011;46518;48.842;8.926;2022-12-22T08:11:49;4.53;;;1.42;;
1400;SDS011;46518;48.842;8.926;2022-12-22T08:14:17;3.08;;;1.42;;
1400;SDS011;46518;48.842;8.926;2022-12-22T08:16:46;3.58;;;1.83;;
1400;SDS011;46518;48.842;8.926;2022-12-22T08:22:30;4.05;;;1.40;;
1400;SDS011;46518;48.842;8.926;2022-12-22T08:24:59;5.57;;;1.52;;
1400;SDS011;46518;48.842;8.926;2022-12-22T08:27:28;7.32;;;2.03;;
1400;SDS011;46518;48.842;8.926;2022-12-22T08:30:04;4.78;;;2.22;;
1400;SDS011;46518;48.842;8.926;2022-12-22T08:32:34;2.67;;;1.45;;
1400;SDS011;46518;48.842;8.926;2022-12-22T08:35:05;4.18;;;1.33;;
1400;SDS011;46518;48.842;8.926;2022-12-22T08:37:56;4.10;;;1.60;;
1400;SDS011;46518;48.842;8.926;2022-12-22T08:40:25;4.68;;;1.20;;
1400;SDS011;46518;48.842;8.926;2022-12-22T08:42:57;7.82;;;1.88;;
1400;SDS011;46518;48.842;8.926;2022-12-22T08:45:29;4.53;;;1.52;;
1400;SDS011;46518;48.842;8.926;2022-12-22T08:47:57;7.38;;;1.85;;
1400;SDS011;46518;48.842;8.926;2022-12-22T08:50:25;2.85;;;1.45;;
1400;SDS011;46518;48.842;8.926;2022-12-22T08:52:59;3.35;;;1.50;;
1400;SDS011;46518;48.842;8.926;2022-12-22T08:55:28;4.78;;;1.55;;
1400;SDS011;46518;48.842;8.926;2022-12-22T08:58:10;5.50;;;1.90;;
1400;SDS011;46518;48.842;8.926;2022-12-22T09:00:39;8.38;;;2.95;;
1400;SDS011;46518;48.842;8.926;2022-12-22T09:03:07;3.65;;;1.73;;
1400;SDS011;46518;48.842;8.926;2022-12-22T09:05:48;1.77;;;1.35;;
1400;SDS011;46518;48.842;8.926;2022-12-22T09:08:17;2.65;;;1.25;;
1400;SDS011;46518;48.842;8.926;2022-12-22T09:10:45;4.95;;;1.70;;
1400;SDS011;46518;48.842;8.926;2022-12-22T09:13:14;7.28;;;1.90;;
1400;SDS011;46518;48.842;8.926;2022-12-22T09:19:00;2.78;;;1.23;;
1400;SDS011;46518;48.842;8.926;2022-12-22T09:21:29;3.97;;;1.98;;
1400;SDS011;46518;48.842;8.926;2022-12-22T09:23:59;2.47;;;2.10;;
1400;SDS011;46518;48.842;8.926;2022-12-22T09:26:29;6.18;;;2.75;;
1400;SDS011;46518;48.842;8.926;2022-12-22T09:28:59;5.32;;;1.27;;
1400;SDS011;46518;48.842;8.926;2022-12-22T09:31:27;4.32;;;1.48;;
1400;SDS011;46518;48.842;8.926;2022-12-22T09:33:55;3.17;;;1.70;;
1400;SDS011;46518;48.842;8.926;2022-12-22T09:36:24;4.80;;;1.50;;
1400;SDS011;46518;48.842;8.926;2022-12-22T09:38:53;5.22;;;1.42;;
1400;SDS011;46518;48.842;8.926;2022-12-22T09:41:24;2.15;;;1.35;;
1400;SDS011;46518;48.842;8.926;2022-12-22T09:44:11;5.28;;;1.35;;
1400;SDS011;46518;48.842;8.926;2022-12-22T09:46:41;2.30;;;1.02;;
1400;SDS011;46518;48.842;8.926;2022-12-22T09:49:10;6.68;;;1.30;;
1400;SDS011;46518;48.842;8.926;2022-12-22T09:51:43;3.47;;;1.20;;
1400;SDS011;46518;48.842;8.926;2022-12-22T09:54:15;3.65;;;1.55;;
1400;SDS011;46518;48.842;8.926;2022-12-22T09:56:44;3.70;;;1.25;;
1400;SDS011;46518;48.842;8.926;2022-12-22T09:59:15;5.65;;;1.50;;
1400;SDS011;46518;48.842;8.926;2022-12-22T10:01:54;3.88;;;1.35;;
1400;SDS011;46518;48.842;8.926;2022-12-22T10:04:37;3.58;;;1.30;;
1400;SDS011;46518;48.842;8.926;2022-12-22T10:07:13;3.50;;;1.63;;
1400;SDS011;46518;48.842;8.926;2022-12-22T10:09:51;4.55;;;1.05;;
1400;SDS011;46518;48.842;8.926;2022-12-22T10:12:21;1.35;;;1.00;;
1400;SDS011;46518;48.842;8.926;2022-12-22T10:14:52;2.75;;;1.50;;
1400;SDS011;46518;48.842;8.926;2022-12-22T10:17:22;7.25;;;1.60;;
1400;SDS011;46518;48.842;8.926;2022-12-22T10:19:54;3.10;;;0.90;;
1400;SDS011;46518;48.842;8.926;2022-12-22T10:22:38;8.57;;;1.40;;
1400;SDS011;46518;48.842;8.926;2022-12-22T10:25:22;3.65;;;1.05;;
1400;SDS011;46518;48.842;8.926;2022-12-22T10:28:17;2.67;;;1.00;;
1400;SDS011;46518;48.842;8.926;2022-12-22T10:30:48;2.20;;;1.23;;
1400;SDS011;46518;48.842;8.926;2022-12-22T10:33:35;1.88;;;0.93;;
1400;SDS011;46518;48.842;8.926;2022-12-22T10:36:12;1.45;;;1.00;;
1400;SDS011;46518;48.842;8.926;2022-12-22T10:38:51;3.28;;;0.80;;
1400;SDS011;46518;48.842;8.926;2022-12-22T10:41:23;2.83;;;1.10;;
1400;SDS011;46518;48.842;8.926;2022-12-22T10:43:55;1.30;;;0.90;;
1400;SDS011;46518;48.842;8.926;2022-12-22T10:46:30;1.35;;;0.85;;
1400;SDS011;46518;48.842;8.926;2022-12-22T10:49:25;1.52;;;0.90;;
1400;SDS011;46518;48.842;8.926;2022-12-22T10:51:56;2.05;;;1.00;;
1400;SDS011;46518;48.842;8.926;2022-12-22T10:54:41;2.00;;;0.95;;
1400;SDS011;46518;48.842;8.926;2022-12-22T10:57:21;1.55;;;0.90;;
1400;SDS011;46518;48.842;8.926;2022-12-22T10:59:56;2.65;;;0.88;;
1400;SDS011;46518;48.842;8.926;2022-12-22T11:02:33;2.60;;;0.90;;
1400;SDS011;46518;48.842;8.926;2022-12-22T11:05:04;0.82;;;0.70;;
1400;SDS011;46518;48.842;8.926;2022-12-22T11:07:35;1.85;;;0.90;;
1400;SDS011;46518;48.842;8.926;2022-12-22T11:10:14;0.80;;;0.60;;
1400;SDS011;46518;48.842;8.926;2022-12-22T11:12:53;0.77;;;0.50;;
1400;SDS011;46518;48.842;8.926;2022-12-22T11:15:32;2.80;;;0.73;;
1400;SDS011;46518;48.842;8.926;2022-12-22T11:18:09;1.90;;;0.80;;
1400;SDS011;46518;48.842;8.926;2022-12-22T11:20:50;1.90;;;0.60;;
1400;SDS011;46518;48.842;8.926;2022-12-22T11:23:28;2.00;;;1.00;;
1400;SDS011;46518;48.842;8.926;2022-12-22T11:26:05;2.35;;;0.95;;
1400;SDS011;46518;48.842;8.926;2022-12-22T11:28:53;2.65;;;1.00;;
1400;SDS011;46518;48.842;8.926;2022-12-22T11:31:38;2.15;;;0.90;;
1400;SDS011;46518;48.842;8.926;2022-12-22T11:34:21;2.20;;;0.90;;
1400;SDS011;46518;48.842;8.926;2022-12-22T11:37:04;1.00;;;0.80;;
1400;SDS011;46518;48.842;8.926;2022-12-22T11:40:02;1.75;;;0.77;;
1400;SDS011;46518;48.842;8.926;2022-12-22T11:42:44;3.55;;;0.80;;
1400;SDS011;46518;48.842;8.926;2022-12-22T11:45:30;1.90;;;1.13;;
1400;SDS011;46518;48.842;8.926;2022-12-22T11:48:19;2.40;;;0.70;;
1400;SDS011;46518;48.842;8.926;2022-12-22T11:51:13;0.70;;;0.70;;
1400;SDS011;46518;48.842;8.926;2022-12-22T11:54:05;0.88;;;0.73;;
1400;SDS011;46518;48.842;8.926;2022-12-22T11:56:49;1.45;;;0.90;;
1400;SDS011;46518;48.842;8.926;2022-12-22T11:59:28;0.90;;;0.70;;
1400;SDS011;46518;48.842;8.926;2022-12-22T12:05:31;2.85;;;0.77;;
1400;SDS011;46518;48.842;8.926;2022-12-22T12:08:09;3.72;;;0.70;;
1400;SDS011;46518;48.842;8.926;2022-12-22T12:10:46;1.70;;;0.95;;
1400;SDS011;46518;48.842;8.926;2022-12-22T12:13:18;4.40;;;0.98;;
1400;SDS011;46518;48.842;8.926;2022-12-22T12:16:05;3.63;;;1.20;;
1400;SDS011;46518;48.842;8.926;2022-12-22T12:21:41;2.47;;;0.70;;
1400;SDS011;46518;48.842;8.926;2022-12-22T12:24:23;2.80;;;0.60;;
1400;SDS011;46518;48.842;8.926;2022-12-22T12:26:59;1.80;;;0.70;;
1400;SDS011;46518;48.842;8.926;2022-12-22T12:29:35;2.60;;;0.70;;
1400;SDS011;46518;48.842;8.926;2022-12-22T12:32:09;2.30;;;1.05;;
1400;SDS011;46518;48.842;8.926;2022-12-22T12:34:42;1.55;;;0.90;;
1400;SDS011;46518;48.842;8.926;2022-12-22T12:37:15;2.17;;;1.08;;
1400;SDS011;46518;48.842;8.926;2022-12-22T12:39:54;1.60;;;0.60;;
1400;SDS011;46518;48.842;8.926;2022-12-22T12:42:30;2.33;;;0.70;;
1400;SDS011;46518;48.842;8.926;2022-12-22T12:45:00;3.17;;;1.17;;
1400;SDS011;46518;48.842;8.926;2022-12-22T12:47:29;1.63;;;0.82;;
1400;SDS011;46518;48.842;8.926;2022-12-22T12:50:27;1.10;;;0.98;;
1400;SDS011;46518;48.842;8.926;2022-12-22T12:53:03;1.50;;;0.80;;
1400;SDS011;46518;48.842;8.926;2022-12-22T12:55:33;3.08;;;1.90;;
1400;SDS011;46518;48.842;8.926;2022-12-22T13:10:37;3.72;;;0.90;;
1400;SDS011;46518;48.842;8.926;2022-12-22T13:13:09;2.83;;;1.05;;
1400;SDS011;46518;48.842;8.926;2022-12-22T13:15:39;3.40;;;1.05;;
1400;SDS011;46518;48.842;8.926;2022-12-22T13:21:16;2.65;;;0.90;;
1400;SDS011;46518;48.842;8.926;2022-12-22T13:24:14;1.75;;;1.10;;
1400;SDS011;46518;48.842;8.926;2022-12-22T13:26:53;3.78;;;0.90;;
1400;SDS011;46518;48.842;8.926;2022-12-22T13:29:42;1.40;;;0.90;;
1400;SDS011;46518;48.842;8.926;2022-12-22T13:32:17;2.55;;;1.27;;
1400;SDS011;46518;48.842;8.926;2022-12-22T13:35:03;3.38;;;1.27;;
1400;SDS011;46518;48.842;8.926;2022-12-22T13:37:53;4.95;;;1.15;;
1400;SDS011;46518;48.842;8.926;2022-12-22T13:40:25;2.10;;;1.00;;
1400;SDS011;46518;48.842;8.926;2022-12-22T13:42:54;1.80;;;0.90;;
1400;SDS011;46518;48.842;8.926;2022-12-22T13:45:28;2.47;;;0.82;;
1400;SDS011;46518;48.842;8.926;2022-12-22T13:48:00;1.00;;;0.90;;
1400;SDS011;46518;48.842;8.926;2022-12-22T13:50:33;2.58;;;0.95;;
1400;SDS011;46518;48.842;8.926;2022-12-22T13:53:06;2.25;;;1.23;;
1400;SDS011;46518;48.842;8.926;2022-12-22T13:55:51;2.10;;;1.08;;
1400;SDS011;46518;48.842;8.926;2022-12-22T13:58:21;5.70;;;1.83;;
1400;SDS011;46518;48.842;8.926;2022-12-22T14:01:01;3.13;;;1.40;;
1400;SDS011;46518;48.842;8.926;2022-12-22T14:03:31;1.85;;;1.67;;
1400;SDS011;46518;48.842;8.926;2022-12-22T14:06:20;7.25;;;1.42;;
1400;SDS011;46518;48.842;8.926;2022-12-22T14:09:08;5.05;;;1.40;;
1400;SDS011;46518;48.842;8.926;2022-12-22T14:11:43;3.83;;;1.10;;
1400;SDS011;46518;48.842;8.926;2022-12-22T14:14:18;3.40;;;1.25;;
1400;SDS011;46518;48.842;8.926;2022-12-22T14:16:51;6.63;;;2.20;;
1400;SDS011;46518;48.842;8.926;2022-12-22T14:19:24;3.35;;;1.30;;
1400;SDS011;46518;48.842;8.926;2022-12-22T14:21:59;5.30;;;1.80;;
1400;SDS011;46518;48.842;8.926;2022-12-22T14:24:32;4.68;;;1.50;;
1400;SDS011;46518;48.842;8.926;2022-12-22T14:27:10;4.25;;;2.67;;
1400;SDS011;46518;48.842;8.926;2022-12-22T14:29:47;5.75;;;2.40;;
1400;SDS011;46518;48.842;8.926;2022-12-22T14:35:24;2.80;;;1.70;;
1400;SDS011;46518;48.842;8.926;2022-12-22T14:38:06;9.85;;;2.63;;
1400;SDS011;46518;48.842;8.926;2022-12-22T14:40:43;7.93;;;2.35;;
1400;SDS011;46518;48.842;8.926;2022-12-22T14:43:28;5.35;;;2.22;;
1400;SDS011;46518;48.842;8.926;2022-12-22T14:46:03;7.20;;;2.67;;
1400;SDS011;46518;48.842;8.926;2022-12-22T14:48:34;8.77;;;2.45;;
1400;SDS011;46518;48.842;8.926;2022-12-22T14:51:04;6.50;;;2.30;;
1400;SDS011;46518;48.842;8.926;2022-12-22T14:53:35;4.68;;;2.33;;
1400;SDS011;46518;48.842;8.926;2022-12-22T14:56:11;2.85;;;1.63;;
1400;SDS011;46518;48.842;8.926;2022-12-22T14:58:43;8.18;;;3.00;;
1400;SDS011;46518;48.842;8.926;2022-12-22T15:01:18;6.22;;;2.25;;
1400;SDS011;46518;48.842;8.926;2022-12-22T15:06:43;8.10;;;2.50;;
1400;SDS011;46518;48.842;8.926;2022-12-22T15:09:23;4.72;;;1.98;;
1400;SDS011;46518;48.842;8.926;2022-12-22T15:12:17;5.57;;;2.55;;
1400;SDS011;46518;48.842;8.926;2022-12-22T15:14:46;9.95;;;2.53;;
1400;SDS011;46518;48.842;8.926;2022-12-22T15:17:18;10.07;;;2.28;;
1400;SDS011;46518;48.842;8.926;2022-12-22T15:19:49;10.57;;;2.83;;
1400;SDS011;46518;48.842;8.926;2022-12-22T15:22:23;5.80;;;2.20;;
1400;SDS011;46518;48.842;8.926;2022-12-22T15:24:51;5.97;;;2.47;;
1400;SDS011;46518;48.842;8.926;2022-12-22T15:27:19;12.88;;;3.30;;
1400;SDS011;46518;48.842;8.926;2022-12-22T15:29:49;4.03;;;1.95;;
1400;SDS011;46518;48.842;8.926;2022-12-22T15:32:17;8.20;;;2.42;;
1400;SDS011;46518;48.842;8.926;2022-12-22T15:35:00;7.50;;;2.88;;
1400;SDS011;46518;48.842;8.926;2022-12-22T15:37:29;5.72;;;3.25;;
1400;SDS011;46518;48.842;8.926;2022-12-22T15:40:16;5.53;;;2.63;;
1400;SDS011;46518;48.842;8.926;2022-12-22T15:42:46;5.90;;;2.42;;
1400;SDS011;46518;48.842;8.926;2022-12-22T15:45:16;9.55;;;3.03;;
1400;SDS011;46518;48.842;8.926;2022-12-22T15:47:46;15.65;;;3.65;;
1400;SDS011;46518;48.842;8.926;2022-12-22T15:50:18;8.00;;;2.55;;
1400;SDS011;46518;48.842;8.926;2022-12-22T15:52:49;8.40;;;2.83;;
1400;SDS011;46518;48.842;8.926;2022-12-22T15:55:19;8.13;;;3.13;;
1400;SDS011;46518;48.842;8.926;2022-12-22T15:57:48;6.50;;;2.55;;
1400;SDS011;46518;48.842;8.926;2022-12-22T16:00:20;10.00;;;2.90;;
1400;SDS011;46518;48.842;8.926;2022-12-22T16:02:49;13.02;;;3.20;;
1400;SDS011;46518;48.842;8.926;2022-12-22T16:05:17;7.90;;;3.40;;
1400;SDS011;46518;48.842;8.926;2022-12-22T16:07:45;9.55;;;3.10;;
1400;SDS011;46518;48.842;8.926;2022-12-22T16:10:17;8.00;;;3.00;;
1400;SDS011;46518;48.842;8.926;2022-12-22T16:12:51;8.48;;;2.97;;
1400;SDS011;46518;48.842;8.926;2022-12-22T16:15:27;7.53;;;2.85;;
1400;SDS011;46518;48.842;8.926;2022-12-22T16:17:57;6.03;;;2.50;;
1400;SDS011;46518;48.842;8.926;2022-12-22T16:20:27;7.35;;;3.03;;
1400;SDS011;46518;48.842;8.926;2022-12-22T16:23:03;9.90;;;3.28;;
1400;SDS011;46518;48.842;8.926;2022-12-22T16:25:34;9.27;;;3.42;;
1400;SDS011;46518;48.842;8.926;2022-12-22T16:28:05;9.20;;;2.95;;
1400;SDS011;46518;48.842;8.926;2022-12-22T16:30:35;5.70;;;2.55;;
1400;SDS011;46518;48.842;8.926;2022-12-22T16:33:03;6.32;;;2.85;;